sensor_id;sensor_type;location;lat;lon;timestamp;P1;durP1;ratioP1;P2;durP2;ratioP2
35120;SDS011;21297;52.008;4.576;2023-06-26T00:02:04;7.80;;;4.70;;
35120;SDS011;21297;52.008;4.576;2023-06-26T00:04:50;11.98;;;5.22;;
35120;SDS011;21297;52.008;4.576;2023-06-26T00:07:39;9.07;;;5.03;;
35120;SDS011;21297;52.008;4.576;2023-06-26T00:10:24;10.18;;;5.28;;
35120;SDS011;21297;52.008;4.576;2023-06-26T00:13:10;14.55;;;5.85;;
35120;SDS011;21297;52.008;4.576;2023-06-26T00:15:57;14.48;;;5.90;;
35120;SDS011;21297;52.008;4.576;2023-06-26T00:18:43;10.90;;;5.63;;
35120;SDS011;21297;52.008;4.576;2023-06-26T00:21:29;15.98;;;6.00;;
35120;SDS011;21297;52.008;4.576;2023-06-26T00:24:14;11.90;;;5.25;;
35120;SDS011;21297;52.008;4.576;2023-06-26T00:27:00;10.63;;;5.45;;
35120;SDS011;21297;52.008;4.576;2023-06-26T00:29:46;10.43;;;4.22;;
35120;SDS011;21297;52.008;4.576;2023-06-26T00:32:31;11.20;;;5.18;;
35120;SDS011;21297;52.008;4.576;2023-06-26T00:35:17;9.85;;;4.50;;
35120;SDS011;21297;52.008;4.576;2023-06-26T00:38:03;19.05;;;5.65;;
35120;SDS011;21297;52.008;4.576;2023-06-26T00:40:48;14.88;;;4.43;;
35120;SDS011;21297;52.008;4.576;2023-06-26T00:43:34;14.52;;;4.90;;
35120;SDS011;21297;52.008;4.576;2023-06-26T00:46:20;11.57;;;4.30;;
35120;SDS011;21297;52.008;4.576;2023-06-26T00:49:06;13.52;;;4.82;;
35120;SDS011;21297;52.008;4.576;2023-06-26T00:51:51;15.10;;;5.47;;
35120;SDS011;21297;52.008;4.576;2023-06-26T00:54:38;13.88;;;4.72;;
35120;SDS011;21297;52.008;4.576;2023-06-26T00:57:24;15.75;;;4.68;;
35120;SDS011;21297;52.008;4.576;2023-06-26T01:00:10;16.23;;;5.22;;
35120;SDS011;21297;52.008;4.576;2023-06-26T01:02:57;16.88;;;4.55;;
35120;SDS011;21297;52.008;4.576;2023-06-26T01:05:44;14.05;;;4.63;;
35120;SDS011;21297;52.008;4.576;2023-06-26T01:08:30;14.73;;;5.15;;
35120;SDS011;21297;52.008;4.576;2023-06-26T01:11:16;20.65;;;5.20;;
35120;SDS011;21297;52.008;4.576;2023-06-26T01:14:03;17.75;;;4.97;;
35120;SDS011;21297;52.008;4.576;2023-06-26T01:16:48;20.85;;;5.63;;
35120;SDS011;21297;52.008;4.576;2023-06-26T01:19:35;21.75;;;4.90;;
35120;SDS011;21297;52.008;4.576;2023-06-26T01:22:28;19.98;;;5.78;;
35120;SDS011;21297;52.008;4.576;2023-06-26T01:25:35;17.80;;;5.25;;
35120;SDS011;21297;52.008;4.576;2023-06-26T01:28:26;16.63;;;5.63;;
35120;SDS011;21297;52.008;4.576;2023-06-26T01:31:13;15.38;;;5.70;;
35120;SDS011;21297;52.008;4.576;2023-06-26T01:34:00;21.48;;;6.57;;
35120;SDS011;21297;52.008;4.576;2023-06-26T01:36:46;16.88;;;5.60;;
35120;SDS011;21297;52.008;4.576;2023-06-26T01:39:32;19.52;;;6.45;;
35120;SDS011;21297;52.008;4.576;2023-06-26T01:42:17;16.63;;;5.75;;
35120;SDS011;21297;52.008;4.576;2023-06-26T01:45:07;18.25;;;5.80;;
35120;SDS011;21297;52.008;4.576;2023-06-26T01:47:58;17.85;;;6.13;;
35120;SDS011;21297;52.008;4.576;2023-06-26T01:50:46;16.75;;;6.07;;
35120;SDS011;21297;52.008;4.576;2023-06-26T01:53:36;25.15;;;6.47;;
35120;SDS011;21297;52.008;4.576;2023-06-26T01:56:26;21.38;;;6.97;;
35120;SDS011;21297;52.008;4.576;2023-06-26T01:59:14;20.77;;;6.43;;
35120;SDS011;21297;52.008;4.576;2023-06-26T02:02:00;18.45;;;5.82;;
35120;SDS011;21297;52.008;4.576;2023-06-26T02:04:46;22.38;;;6.22;;
35120;SDS011;21297;52.008;4.576;2023-06-26T02:07:33;14.25;;;6.32;;
35120;SDS011;21297;52.008;4.576;2023-06-26T02:10:19;22.20;;;6.43;;
35120;SDS011;21297;52.008;4.576;2023-06-26T02:13:04;23.23;;;6.68;;
35120;SDS011;21297;52.008;4.576;2023-06-26T02:15:50;19.00;;;5.47;;
35120;SDS011;21297;52.008;4.576;2023-06-26T02:18:36;16.73;;;5.90;;
35120;SDS011;21297;52.008;4.576;2023-06-26T02:21:21;23.27;;;5.68;;
35120;SDS011;21297;52.008;4.576;2023-06-26T02:24:07;20.55;;;5.57;;
35120;SDS011;21297;52.008;4.576;2023-06-26T02:26:53;19.98;;;5.85;;
35120;SDS011;21297;52.008;4.576;2023-06-26T02:29:39;22.13;;;6.78;;
35120;SDS011;21297;52.008;4.576;2023-06-26T02:32:25;23.35;;;6.07;;
35120;SDS011;21297;52.008;4.576;2023-06-26T02:35:10;18.02;;;5.75;;
35120;SDS011;21297;52.008;4.576;2023-06-26T02:37:56;26.30;;;6.45;;
35120;SDS011;21297;52.008;4.576;2023-06-26T02:40:42;22.17;;;6.57;;
35120;SDS011;21297;52.008;4.576;2023-06-26T02:43:27;20.00;;;5.93;;
35120;SDS011;21297;52.008;4.576;2023-06-26T02:46:13;18.63;;;6.00;;
35120;SDS011;21297;52.008;4.576;2023-06-26T02:48:59;21.70;;;6.10;;
35120;SDS011;21297;52.008;4.576;2023-06-26T02:51:44;25.55;;;6.68;;
35120;SDS011;21297;52.008;4.576;2023-06-26T02:54:30;18.67;;;5.75;;
35120;SDS011;21297;52.008;4.576;2023-06-26T02:57:16;25.40;;;5.80;;
35120;SDS011;21297;52.008;4.576;2023-06-26T03:00:02;22.40;;;6.30;;
35120;SDS011;21297;52.008;4.576;2023-06-26T03:02:48;19.30;;;6.25;;
35120;SDS011;21297;52.008;4.576;2023-06-26T03:05:33;22.42;;;6.30;;
35120;SDS011;21297;52.008;4.576;2023-06-26T03:08:19;25.20;;;6.45;;
35120;SDS011;21297;52.008;4.576;2023-06-26T03:11:05;20.42;;;6.10;;
35120;SDS011;21297;52.008;4.576;2023-06-26T03:13:51;21.13;;;6.32;;
35120;SDS011;21297;52.008;4.576;2023-06-26T03:16:37;18.90;;;6.05;;
35120;SDS011;21297;52.008;4.576;2023-06-26T03:19:23;23.13;;;7.30;;
35120;SDS011;21297;52.008;4.576;2023-06-26T03:22:09;30.65;;;8.07;;
35120;SDS011;21297;52.008;4.576;2023-06-26T03:24:54;24.20;;;7.00;;
35120;SDS011;21297;52.008;4.576;2023-06-26T03:27:40;23.90;;;6.47;;
35120;SDS011;21297;52.008;4.576;2023-06-26T03:30:26;20.67;;;7.07;;
35120;SDS011;21297;52.008;4.576;2023-06-26T03:33:12;21.55;;;6.50;;
35120;SDS011;21297;52.008;4.576;2023-06-26T03:35:57;20.48;;;6.40;;
35120;SDS011;21297;52.008;4.576;2023-06-26T03:38:44;28.80;;;6.93;;
35120;SDS011;21297;52.008;4.576;2023-06-26T03:41:30;23.25;;;6.50;;
35120;SDS011;21297;52.008;4.576;2023-06-26T03:44:15;25.05;;;7.28;;
35120;SDS011;21297;52.008;4.576;2023-06-26T03:47:02;20.60;;;6.35;;
35120;SDS011;21297;52.008;4.576;2023-06-26T03:49:47;22.02;;;6.57;;
35120;SDS011;21297;52.008;4.576;2023-06-26T03:52:33;19.95;;;6.13;;
35120;SDS011;21297;52.008;4.576;2023-06-26T03:55:18;23.35;;;6.28;;
35120;SDS011;21297;52.008;4.576;2023-06-26T03:58:04;19.70;;;6.60;;
35120;SDS011;21297;52.008;4.576;2023-06-26T04:00:50;22.50;;;7.30;;
35120;SDS011;21297;52.008;4.576;2023-06-26T04:03:36;20.05;;;5.97;;
35120;SDS011;21297;52.008;4.576;2023-06-26T04:06:22;21.45;;;6.38;;
35120;SDS011;21297;52.008;4.576;2023-06-26T04:09:07;21.77;;;6.50;;
35120;SDS011;21297;52.008;4.576;2023-06-26T04:11:53;15.88;;;5.80;;
35120;SDS011;21297;52.008;4.576;2023-06-26T04:14:38;16.85;;;5.40;;
35120;SDS011;21297;52.008;4.576;2023-06-26T04:17:24;20.08;;;6.43;;
35120;SDS011;21297;52.008;4.576;2023-06-26T04:20:10;18.65;;;6.30;;
35120;SDS011;21297;52.008;4.576;2023-06-26T04:22:55;17.98;;;5.82;;
35120;SDS011;21297;52.008;4.576;2023-06-26T04:25:41;22.25;;;6.18;;
35120;SDS011;21297;52.008;4.576;2023-06-26T04:28:27;16.67;;;5.15;;
35120;SDS011;21297;52.008;4.576;2023-06-26T04:31:12;20.42;;;5.95;;
35120;SDS011;21297;52.008;4.576;2023-06-26T04:33:58;20.52;;;6.47;;
35120;SDS011;21297;52.008;4.576;2023-06-26T04:36:44;20.60;;;6.68;;
35120;SDS011;21297;52.008;4.576;2023-06-26T04:39:33;18.33;;;5.75;;
35120;SDS011;21297;52.008;4.576;2023-06-26T04:42:18;26.20;;;5.60;;
35120;SDS011;21297;52.008;4.576;2023-06-26T04:45:07;19.25;;;5.75;;
35120;SDS011;21297;52.008;4.576;2023-06-26T04:47:52;19.88;;;5.32;;
35120;SDS011;21297;52.008;4.576;2023-06-26T04:50:39;14.35;;;4.05;;
35120;SDS011;21297;52.008;4.576;2023-06-26T04:53:25;12.85;;;4.25;;
35120;SDS011;21297;52.008;4.576;2023-06-26T04:56:11;12.90;;;4.03;;
35120;SDS011;21297;52.008;4.576;2023-06-26T04:58:56;11.95;;;4.00;;
35120;SDS011;21297;52.008;4.576;2023-06-26T05:01:42;13.07;;;3.80;;
35120;SDS011;21297;52.008;4.576;2023-06-26T05:04:33;14.80;;;4.90;;
35120;SDS011;21297;52.008;4.576;2023-06-26T05:07:18;10.35;;;4.05;;
35120;SDS011;21297;52.008;4.576;2023-06-26T05:10:04;11.20;;;4.53;;
35120;SDS011;21297;52.008;4.576;2023-06-26T05:12:50;13.32;;;4.28;;
35120;SDS011;21297;52.008;4.576;2023-06-26T05:15:36;12.82;;;4.13;;
35120;SDS011;21297;52.008;4.576;2023-06-26T05:18:22;12.15;;;4.20;;
35120;SDS011;21297;52.008;4.576;2023-06-26T05:21:08;11.30;;;4.53;;
35120;SDS011;21297;52.008;4.576;2023-06-26T05:23:55;9.75;;;4.40;;
35120;SDS011;21297;52.008;4.576;2023-06-26T05:26:41;10.93;;;4.35;;
35120;SDS011;21297;52.008;4.576;2023-06-26T05:29:27;11.68;;;4.00;;
35120;SDS011;21297;52.008;4.576;2023-06-26T05:32:15;13.50;;;4.10;;
35120;SDS011;21297;52.008;4.576;2023-06-26T05:35:05;14.02;;;3.97;;
35120;SDS011;21297;52.008;4.576;2023-06-26T05:37:52;9.90;;;3.90;;
35120;SDS011;21297;52.008;4.576;2023-06-26T05:40:39;9.73;;;3.83;;
35120;SDS011;21297;52.008;4.576;2023-06-26T05:43:25;9.15;;;3.42;;
35120;SDS011;21297;52.008;4.576;2023-06-26T05:46:11;11.32;;;3.33;;
35120;SDS011;21297;52.008;4.576;2023-06-26T05:48:57;13.13;;;3.00;;
35120;SDS011;21297;52.008;4.576;2023-06-26T05:51:43;9.80;;;2.78;;
35120;SDS011;21297;52.008;4.576;2023-06-26T05:54:29;10.77;;;2.80;;
35120;SDS011;21297;52.008;4.576;2023-06-26T05:57:15;7.97;;;2.47;;
35120;SDS011;21297;52.008;4.576;2023-06-26T06:00:00;8.80;;;2.50;;
35120;SDS011;21297;52.008;4.576;2023-06-26T06:02:47;8.55;;;2.35;;
35120;SDS011;21297;52.008;4.576;2023-06-26T06:05:32;10.15;;;1.80;;
35120;SDS011;21297;52.008;4.576;2023-06-26T06:08:19;7.38;;;1.65;;
35120;SDS011;21297;52.008;4.576;2023-06-26T06:11:05;9.05;;;2.08;;
35120;SDS011;21297;52.008;4.576;2023-06-26T06:13:50;9.07;;;2.03;;
35120;SDS011;21297;52.008;4.576;2023-06-26T06:16:36;11.07;;;1.83;;
35120;SDS011;21297;52.008;4.576;2023-06-26T06:19:22;8.55;;;1.90;;
35120;SDS011;21297;52.008;4.576;2023-06-26T06:22:08;8.52;;;2.20;;
35120;SDS011;21297;52.008;4.576;2023-06-26T06:24:53;7.55;;;1.80;;
35120;SDS011;21297;52.008;4.576;2023-06-26T06:27:39;12.00;;;1.92;;
35120;SDS011;21297;52.008;4.576;2023-06-26T06:30:25;11.18;;;1.88;;
35120;SDS011;21297;52.008;4.576;2023-06-26T06:33:10;12.00;;;1.95;;
35120;SDS011;21297;52.008;4.576;2023-06-26T06:35:56;8.40;;;2.15;;
35120;SDS011;21297;52.008;4.576;2023-06-26T06:38:45;9.23;;;1.98;;
35120;SDS011;21297;52.008;4.576;2023-06-26T06:41:31;7.70;;;2.08;;
35120;SDS011;21297;52.008;4.576;2023-06-26T06:44:16;7.78;;;1.63;;
35120;SDS011;21297;52.008;4.576;2023-06-26T06:47:02;8.52;;;1.85;;
35120;SDS011;21297;52.008;4.576;2023-06-26T06:49:48;17.17;;;2.50;;
35120;SDS011;21297;52.008;4.576;2023-06-26T06:52:37;11.27;;;2.15;;
35120;SDS011;21297;52.008;4.576;2023-06-26T06:55:23;9.85;;;1.92;;
35120;SDS011;21297;52.008;4.576;2023-06-26T06:58:11;10.48;;;1.83;;
35120;SDS011;21297;52.008;4.576;2023-06-26T07:00:57;9.68;;;2.22;;
35120;SDS011;21297;52.008;4.576;2023-06-26T07:03:42;12.88;;;2.22;;
35120;SDS011;21297;52.008;4.576;2023-06-26T07:06:28;12.68;;;2.30;;
35120;SDS011;21297;52.008;4.576;2023-06-26T07:09:15;15.30;;;2.60;;
35120;SDS011;21297;52.008;4.576;2023-06-26T07:12:01;10.82;;;2.03;;
35120;SDS011;21297;52.008;4.576;2023-06-26T07:14:46;12.40;;;2.20;;
35120;SDS011;21297;52.008;4.576;2023-06-26T07:17:32;9.60;;;2.10;;
35120;SDS011;21297;52.008;4.576;2023-06-26T07:20:19;6.75;;;1.90;;
35120;SDS011;21297;52.008;4.576;2023-06-26T07:23:04;10.82;;;2.13;;
35120;SDS011;21297;52.008;4.576;2023-06-26T07:25:50;10.80;;;2.03;;
35120;SDS011;21297;52.008;4.576;2023-06-26T07:28:36;13.35;;;2.15;;
35120;SDS011;21297;52.008;4.576;2023-06-26T07:31:21;10.75;;;2.17;;
35120;SDS011;21297;52.008;4.576;2023-06-26T07:34:07;11.35;;;2.00;;
35120;SDS011;21297;52.008;4.576;2023-06-26T07:36:53;9.10;;;2.28;;
35120;SDS011;21297;52.008;4.576;2023-06-26T07:39:38;6.72;;;2.38;;
35120;SDS011;21297;52.008;4.576;2023-06-26T07:42:24;14.20;;;2.40;;
35120;SDS011;21297;52.008;4.576;2023-06-26T07:45:10;10.52;;;2.20;;
35120;SDS011;21297;52.008;4.576;2023-06-26T07:47:57;9.32;;;2.42;;
35120;SDS011;21297;52.008;4.576;2023-06-26T07:50:43;14.57;;;2.50;;
35120;SDS011;21297;52.008;4.576;2023-06-26T07:53:28;10.45;;;2.00;;
35120;SDS011;21297;52.008;4.576;2023-06-26T07:56:14;10.93;;;2.10;;
35120;SDS011;21297;52.008;4.576;2023-06-26T07:59:00;11.55;;;2.22;;
35120;SDS011;21297;52.008;4.576;2023-06-26T08:01:50;8.77;;;1.90;;
35120;SDS011;21297;52.008;4.576;2023-06-26T08:04:36;6.22;;;2.25;;
35120;SDS011;21297;52.008;4.576;2023-06-26T08:07:22;8.20;;;1.88;;
35120;SDS011;21297;52.008;4.576;2023-06-26T08:10:08;7.85;;;2.00;;
35120;SDS011;21297;52.008;4.576;2023-06-26T08:12:54;10.27;;;2.25;;
35120;SDS011;21297;52.008;4.576;2023-06-26T08:15:40;13.80;;;2.50;;
35120;SDS011;21297;52.008;4.576;2023-06-26T08:18:26;7.93;;;1.80;;
35120;SDS011;21297;52.008;4.576;2023-06-26T08:21:12;13.20;;;2.67;;
35120;SDS011;21297;52.008;4.576;2023-06-26T08:23:57;8.60;;;2.22;;
35120;SDS011;21297;52.008;4.576;2023-06-26T08:26:44;5.63;;;1.88;;
35120;SDS011;21297;52.008;4.576;2023-06-26T08:29:30;8.18;;;2.13;;
35120;SDS011;21297;52.008;4.576;2023-06-26T08:32:16;9.25;;;1.83;;
35120;SDS011;21297;52.008;4.576;2023-06-26T08:35:02;8.93;;;2.00;;
35120;SDS011;21297;52.008;4.576;2023-06-26T08:37:48;8.77;;;2.17;;
35120;SDS011;21297;52.008;4.576;2023-06-26T08:40:33;9.60;;;2.28;;
35120;SDS011;21297;52.008;4.576;2023-06-26T08:43:19;7.28;;;2.20;;
35120;SDS011;21297;52.008;4.576;2023-06-26T08:46:07;7.93;;;1.80;;
35120;SDS011;21297;52.008;4.576;2023-06-26T08:48:56;7.85;;;1.83;;
35120;SDS011;21297;52.008;4.576;2023-06-26T08:51:49;10.68;;;2.17;;
35120;SDS011;21297;52.008;4.576;2023-06-26T08:54:43;13.93;;;2.20;;
35120;SDS011;21297;52.008;4.576;2023-06-26T08:57:31;11.43;;;2.17;;
35120;SDS011;21297;52.008;4.576;2023-06-26T09:00:17;11.38;;;2.03;;
35120;SDS011;21297;52.008;4.576;2023-06-26T09:03:04;7.07;;;1.80;;
35120;SDS011;21297;52.008;4.576;2023-06-26T09:05:49;6.50;;;1.83;;
35120;SDS011;21297;52.008;4.576;2023-06-26T09:08:35;8.13;;;2.10;;
35120;SDS011;21297;52.008;4.576;2023-06-26T09:11:21;5.53;;;1.63;;
35120;SDS011;21297;52.008;4.576;2023-06-26T09:14:06;9.75;;;2.15;;
35120;SDS011;21297;52.008;4.576;2023-06-26T09:16:55;11.27;;;2.10;;
35120;SDS011;21297;52.008;4.576;2023-06-26T09:19:41;5.65;;;1.55;;
35120;SDS011;21297;52.008;4.576;2023-06-26T09:22:33;11.30;;;2.08;;
35120;SDS011;21297;52.008;4.576;2023-06-26T09:25:21;11.23;;;2.15;;
35120;SDS011;21297;52.008;4.576;2023-06-26T09:28:08;7.97;;;2.05;;
35120;SDS011;21297;52.008;4.576;2023-06-26T09:30:55;8.38;;;1.80;;
35120;SDS011;21297;52.008;4.576;2023-06-26T09:33:46;14.95;;;1.73;;
35120;SDS011;21297;52.008;4.576;2023-06-26T09:36:52;7.65;;;2.00;;
35120;SDS011;21297;52.008;4.576;2023-06-26T09:39:38;12.75;;;2.17;;
35120;SDS011;21297;52.008;4.576;2023-06-26T09:42:24;8.68;;;2.03;;
35120;SDS011;21297;52.008;4.576;2023-06-26T09:45:17;6.72;;;2.05;;
35120;SDS011;21297;52.008;4.576;2023-06-26T09:48:03;11.70;;;2.13;;
35120;SDS011;21297;52.008;4.576;2023-06-26T09:50:50;13.85;;;2.20;;
35120;SDS011;21297;52.008;4.576;2023-06-26T09:53:35;10.07;;;2.55;;
35120;SDS011;21297;52.008;4.576;2023-06-26T09:56:24;9.32;;;1.98;;
35120;SDS011;21297;52.008;4.576;2023-06-26T09:59:10;12.38;;;2.50;;
35120;SDS011;21297;52.008;4.576;2023-06-26T10:01:58;7.18;;;2.03;;
35120;SDS011;21297;52.008;4.576;2023-06-26T10:04:45;7.75;;;2.30;;
35120;SDS011;21297;52.008;4.576;2023-06-26T10:07:30;10.88;;;2.33;;
35120;SDS011;21297;52.008;4.576;2023-06-26T10:10:16;8.80;;;2.42;;
35120;SDS011;21297;52.008;4.576;2023-06-26T10:13:11;11.65;;;1.88;;
35120;SDS011;21297;52.008;4.576;2023-06-26T10:16:02;7.57;;;1.80;;
35120;SDS011;21297;52.008;4.576;2023-06-26T10:18:49;8.50;;;2.00;;
35120;SDS011;21297;52.008;4.576;2023-06-26T10:21:38;8.30;;;1.80;;
35120;SDS011;21297;52.008;4.576;2023-06-26T10:24:26;8.30;;;1.70;;
35120;SDS011;21297;52.008;4.576;2023-06-26T10:27:15;8.00;;;2.17;;
35120;SDS011;21297;52.008;4.576;2023-06-26T10:30:05;7.77;;;1.70;;
35120;SDS011;21297;52.008;4.576;2023-06-26T10:32:55;6.22;;;1.60;;
35120;SDS011;21297;52.008;4.576;2023-06-26T10:35:44;8.88;;;1.77;;
35120;SDS011;21297;52.008;4.576;2023-06-26T10:38:47;9.47;;;1.77;;
35120;SDS011;21297;52.008;4.576;2023-06-26T10:41:37;7.25;;;1.33;;
35120;SDS011;21297;52.008;4.576;2023-06-26T10:44:24;7.78;;;1.60;;
35120;SDS011;21297;52.008;4.576;2023-06-26T10:47:10;10.25;;;1.55;;
35120;SDS011;21297;52.008;4.576;2023-06-26T10:50:16;6.10;;;1.83;;
35120;SDS011;21297;52.008;4.576;2023-06-26T10:56:04;8.35;;;1.52;;
35120;SDS011;21297;52.008;4.576;2023-06-26T10:58:50;6.50;;;1.60;;
35120;SDS011;21297;52.008;4.576;2023-06-26T11:01:39;9.25;;;2.10;;
35120;SDS011;21297;52.008;4.576;2023-06-26T11:07:31;5.03;;;1.35;;
35120;SDS011;21297;52.008;4.576;2023-06-26T11:10:17;5.82;;;1.40;;
35120;SDS011;21297;52.008;4.576;2023-06-26T11:13:04;10.80;;;1.48;;
35120;SDS011;21297;52.008;4.576;2023-06-26T11:15:50;8.30;;;1.50;;
35120;SDS011;21297;52.008;4.576;2023-06-26T11:18:36;7.32;;;1.67;;
35120;SDS011;21297;52.008;4.576;2023-06-26T11:21:22;6.68;;;1.75;;
35120;SDS011;21297;52.008;4.576;2023-06-26T11:24:09;7.35;;;1.50;;
35120;SDS011;21297;52.008;4.576;2023-06-26T11:26:56;8.05;;;1.50;;
35120;SDS011;21297;52.008;4.576;2023-06-26T11:29:48;5.65;;;1.40;;
35120;SDS011;21297;52.008;4.576;2023-06-26T11:32:38;8.32;;;1.48;;
35120;SDS011;21297;52.008;4.576;2023-06-26T11:35:25;9.38;;;1.70;;
35120;SDS011;21297;52.008;4.576;2023-06-26T11:38:17;7.57;;;1.85;;
35120;SDS011;21297;52.008;4.576;2023-06-26T11:41:03;9.23;;;1.60;;
35120;SDS011;21297;52.008;4.576;2023-06-26T11:43:51;5.40;;;1.20;;
35120;SDS011;21297;52.008;4.576;2023-06-26T11:46:37;4.78;;;1.30;;
35120;SDS011;21297;52.008;4.576;2023-06-26T11:49:23;4.85;;;1.10;;
35120;SDS011;21297;52.008;4.576;2023-06-26T11:52:11;4.93;;;1.42;;
35120;SDS011;21297;52.008;4.576;2023-06-26T11:54:57;5.18;;;1.40;;
35120;SDS011;21297;52.008;4.576;2023-06-26T11:57:47;7.38;;;1.15;;
35120;SDS011;21297;52.008;4.576;2023-06-26T12:00:34;4.45;;;1.23;;
35120;SDS011;21297;52.008;4.576;2023-06-26T12:03:20;7.90;;;1.30;;
35120;SDS011;21297;52.008;4.576;2023-06-26T12:06:06;6.55;;;1.50;;
35120;SDS011;21297;52.008;4.576;2023-06-26T12:08:52;5.38;;;1.23;;
35120;SDS011;21297;52.008;4.576;2023-06-26T12:11:38;2.42;;;1.15;;
35120;SDS011;21297;52.008;4.576;2023-06-26T12:14:26;5.65;;;1.50;;
35120;SDS011;21297;52.008;4.576;2023-06-26T12:17:15;6.75;;;1.40;;
35120;SDS011;21297;52.008;4.576;2023-06-26T12:20:02;6.03;;;1.42;;
35120;SDS011;21297;52.008;4.576;2023-06-26T12:22:50;5.45;;;1.50;;
35120;SDS011;21297;52.008;4.576;2023-06-26T12:25:39;5.10;;;1.42;;
35120;SDS011;21297;52.008;4.576;2023-06-26T12:28:25;6.00;;;1.60;;
35120;SDS011;21297;52.008;4.576;2023-06-26T12:31:17;5.38;;;1.42;;
35120;SDS011;21297;52.008;4.576;2023-06-26T12:34:08;14.00;;;2.25;;
35120;SDS011;21297;52.008;4.576;2023-06-26T12:36:59;6.60;;;1.45;;
35120;SDS011;21297;52.008;4.576;2023-06-26T12:39:53;5.40;;;1.27;;
35120;SDS011;21297;52.008;4.576;2023-06-26T12:42:39;7.35;;;1.40;;
35120;SDS011;21297;52.008;4.576;2023-06-26T12:45:25;4.70;;;1.45;;
35120;SDS011;21297;52.008;4.576;2023-06-26T12:48:12;3.97;;;1.33;;
35120;SDS011;21297;52.008;4.576;2023-06-26T12:50:58;6.40;;;1.60;;
35120;SDS011;21297;52.008;4.576;2023-06-26T12:53:43;5.72;;;1.73;;
35120;SDS011;21297;52.008;4.576;2023-06-26T12:56:29;6.18;;;1.42;;
35120;SDS011;21297;52.008;4.576;2023-06-26T12:59:15;4.93;;;1.58;;
35120;SDS011;21297;52.008;4.576;2023-06-26T13:02:00;6.75;;;1.63;;
35120;SDS011;21297;52.008;4.576;2023-06-26T13:04:46;5.72;;;1.48;;
35120;SDS011;21297;52.008;4.576;2023-06-26T13:07:32;6.13;;;1.50;;
35120;SDS011;21297;52.008;4.576;2023-06-26T13:10:17;7.57;;;1.58;;
35120;SDS011;21297;52.008;4.576;2023-06-26T13:13:03;7.80;;;1.70;;
35120;SDS011;21297;52.008;4.576;2023-06-26T13:15:48;7.03;;;1.63;;
35120;SDS011;21297;52.008;4.576;2023-06-26T13:18:34;6.22;;;1.33;;
35120;SDS011;21297;52.008;4.576;2023-06-26T13:21:20;7.30;;;1.65;;
35120;SDS011;21297;52.008;4.576;2023-06-26T13:24:06;8.68;;;1.60;;
35120;SDS011;21297;52.008;4.576;2023-06-26T13:26:51;7.60;;;1.63;;
35120;SDS011;21297;52.008;4.576;2023-06-26T13:29:37;7.93;;;1.85;;
35120;SDS011;21297;52.008;4.576;2023-06-26T13:32:23;7.32;;;1.70;;
35120;SDS011;21297;52.008;4.576;2023-06-26T13:35:09;8.38;;;1.88;;
35120;SDS011;21297;52.008;4.576;2023-06-26T13:37:55;7.38;;;1.45;;
35120;SDS011;21297;52.008;4.576;2023-06-26T13:40:41;4.55;;;1.30;;
35120;SDS011;21297;52.008;4.576;2023-06-26T13:43:27;6.88;;;1.50;;
35120;SDS011;21297;52.008;4.576;2023-06-26T13:46:14;5.38;;;1.33;;
35120;SDS011;21297;52.008;4.576;2023-06-26T13:49:01;4.32;;;0.93;;
35120;SDS011;21297;52.008;4.576;2023-06-26T13:51:46;8.88;;;1.65;;
35120;SDS011;21297;52.008;4.576;2023-06-26T13:54:36;5.47;;;1.30;;
35120;SDS011;21297;52.008;4.576;2023-06-26T13:57:24;8.85;;;1.50;;
35120;SDS011;21297;52.008;4.576;2023-06-26T14:00:13;5.05;;;1.58;;
35120;SDS011;21297;52.008;4.576;2023-06-26T14:03:01;2.85;;;1.00;;
35120;SDS011;21297;52.008;4.576;2023-06-26T14:05:48;3.92;;;1.25;;
35120;SDS011;21297;52.008;4.576;2023-06-26T14:08:34;8.18;;;1.13;;
35120;SDS011;21297;52.008;4.576;2023-06-26T14:11:19;3.90;;;1.10;;
35120;SDS011;21297;52.008;4.576;2023-06-26T14:14:05;5.97;;;1.23;;
35120;SDS011;21297;52.008;4.576;2023-06-26T14:16:51;4.63;;;1.13;;
35120;SDS011;21297;52.008;4.576;2023-06-26T14:19:36;5.05;;;1.35;;
35120;SDS011;21297;52.008;4.576;2023-06-26T14:22:22;4.55;;;1.42;;
35120;SDS011;21297;52.008;4.576;2023-06-26T14:25:09;4.82;;;1.33;;
35120;SDS011;21297;52.008;4.576;2023-06-26T14:27:55;6.00;;;0.95;;
35120;SDS011;21297;52.008;4.576;2023-06-26T14:30:42;7.95;;;1.27;;
35120;SDS011;21297;52.008;4.576;2023-06-26T14:33:27;5.82;;;1.30;;
35120;SDS011;21297;52.008;4.576;2023-06-26T14:36:13;5.93;;;1.67;;
35120;SDS011;21297;52.008;4.576;2023-06-26T14:39:02;3.35;;;0.88;;
35120;SDS011;21297;52.008;4.576;2023-06-26T14:41:48;5.70;;;1.38;;
35120;SDS011;21297;52.008;4.576;2023-06-26T14:44:33;5.28;;;1.33;;
35120;SDS011;21297;52.008;4.576;2023-06-26T14:47:19;4.75;;;1.45;;
35120;SDS011;21297;52.008;4.576;2023-06-26T14:50:05;7.03;;;1.35;;
35120;SDS011;21297;52.008;4.576;2023-06-26T14:52:51;6.43;;;1.30;;
35120;SDS011;21297;52.008;4.576;2023-06-26T14:55:36;5.93;;;1.60;;
35120;SDS011;21297;52.008;4.576;2023-06-26T14:58:22;3.88;;;1.48;;
35120;SDS011;21297;52.008;4.576;2023-06-26T15:01:08;5.53;;;1.38;;
35120;SDS011;21297;52.008;4.576;2023-06-26T15:03:54;6.47;;;1.45;;
35120;SDS011;21297;52.008;4.576;2023-06-26T15:06:39;4.55;;;1.33;;
35120;SDS011;21297;52.008;4.576;2023-06-26T15:09:25;6.38;;;1.50;;
35120;SDS011;21297;52.008;4.576;2023-06-26T15:12:11;4.13;;;1.52;;
35120;SDS011;21297;52.008;4.576;2023-06-26T15:14:57;6.75;;;1.33;;
35120;SDS011;21297;52.008;4.576;2023-06-26T15:17:42;7.13;;;1.40;;
35120;SDS011;21297;52.008;4.576;2023-06-26T15:20:28;4.72;;;1.17;;
35120;SDS011;21297;52.008;4.576;2023-06-26T15:23:14;4.50;;;1.67;;
35120;SDS011;21297;52.008;4.576;2023-06-26T15:25:59;5.57;;;1.60;;
35120;SDS011;21297;52.008;4.576;2023-06-26T15:28:45;4.95;;;1.17;;
35120;SDS011;21297;52.008;4.576;2023-06-26T15:31:32;6.75;;;1.75;;
35120;SDS011;21297;52.008;4.576;2023-06-26T15:34:17;7.57;;;1.58;;
35120;SDS011;21297;52.008;4.576;2023-06-26T15:37:03;7.20;;;1.67;;
35120;SDS011;21297;52.008;4.576;2023-06-26T15:39:49;4.93;;;1.58;;
35120;SDS011;21297;52.008;4.576;2023-06-26T15:42:44;7.47;;;1.60;;
35120;SDS011;21297;52.008;4.576;2023-06-26T15:45:33;5.50;;;1.60;;
35120;SDS011;21297;52.008;4.576;2023-06-26T15:48:19;9.55;;;1.85;;
35120;SDS011;21297;52.008;4.576;2023-06-26T15:51:05;6.70;;;1.45;;
35120;SDS011;21297;52.008;4.576;2023-06-26T15:53:50;6.57;;;1.50;;
35120;SDS011;21297;52.008;4.576;2023-06-26T15:56:36;6.18;;;1.52;;
35120;SDS011;21297;52.008;4.576;2023-06-26T15:59:22;6.82;;;1.60;;
35120;SDS011;21297;52.008;4.576;2023-06-26T16:02:07;7.47;;;1.45;;
35120;SDS011;21297;52.008;4.576;2023-06-26T16:04:53;9.25;;;1.50;;
35120;SDS011;21297;52.008;4.576;2023-06-26T16:07:38;7.00;;;1.52;;
35120;SDS011;21297;52.008;4.576;2023-06-26T16:10:24;4.50;;;1.50;;
35120;SDS011;21297;52.008;4.576;2023-06-26T16:13:10;5.88;;;1.60;;
35120;SDS011;21297;52.008;4.576;2023-06-26T16:15:55;8.00;;;1.77;;
35120;SDS011;21297;52.008;4.576;2023-06-26T16:18:41;9.85;;;1.75;;
35120;SDS011;21297;52.008;4.576;2023-06-26T16:21:27;6.85;;;1.60;;
35120;SDS011;21297;52.008;4.576;2023-06-26T16:24:12;8.77;;;1.52;;
35120;SDS011;21297;52.008;4.576;2023-06-26T16:26:58;7.43;;;1.40;;
35120;SDS011;21297;52.008;4.576;2023-06-26T16:29:44;7.25;;;1.35;;
35120;SDS011;21297;52.008;4.576;2023-06-26T16:32:29;8.70;;;1.73;;
35120;SDS011;21297;52.008;4.576;2023-06-26T16:35:15;5.95;;;1.85;;
35120;SDS011;21297;52.008;4.576;2023-06-26T16:38:01;8.05;;;1.83;;
35120;SDS011;21297;52.008;4.576;2023-06-26T16:40:47;8.07;;;1.70;;
35120;SDS011;21297;52.008;4.576;2023-06-26T16:43:33;6.82;;;1.65;;